sensor_id;sensor_type;location;lat;lon;timestamp;temperature;humidity
21031;DHT22;61072;47.808;7.636;2023-07-20T00:00:04;23.40;99.90
21031;DHT22;61072;47.808;7.636;2023-07-20T00:02:31;23.30;99.90
21031;DHT22;61072;47.808;7.636;2023-07-20T00:04:58;23.20;99.90
21031;DHT22;61072;47.808;7.636;2023-07-20T00:07:25;23.10;99.90
21031;DHT22;61072;47.808;7.636;2023-07-20T00:09:52;23.10;99.90
21031;DHT22;61072;47.808;7.636;2023-07-20T00:12:19;23.00;99.90
21031;DHT22;61072;47.808;7.636;2023-07-20T00:14:45;23.00;99.90
21031;DHT22;61072;47.808;7.636;2023-07-20T00:17:12;22.90;99.90
21031;DHT22;61072;47.808;7.636;2023-07-20T00:19:39;22.90;99.90
21031;DHT22;61072;47.808;7.636;2023-07-20T00:22:06;22.90;99.90
21031;DHT22;61072;47.808;7.636;2023-07-20T00:24:32;22.90;99.90
21031;DHT22;61072;47.808;7.636;2023-07-20T00:26:59;22.90;99.90
21031;DHT22;61072;47.808;7.636;2023-07-20T00:29:28;22.80;99.90
21031;DHT22;61072;47.808;7.636;2023-07-20T00:31:54;22.80;99.90
21031;DHT22;61072;47.808;7.636;2023-07-20T00:34:21;22.80;99.90
21031;DHT22;61072;47.808;7.636;2023-07-20T00:36:48;22.80;99.90
21031;DHT22;61072;47.808;7.636;2023-07-20T00:39:16;22.80;99.90
21031;DHT22;61072;47.808;7.636;2023-07-20T00:41:42;22.80;99.90
21031;DHT22;61072;47.808;7.636;2023-07-20T00:44:09;22.80;99.90
21031;DHT22;61072;47.808;7.636;2023-07-20T00:46:36;22.80;99.90
21031;DHT22;61072;47.808;7.636;2023-07-20T00:49:03;22.70;99.90
21031;DHT22;61072;47.808;7.636;2023-07-20T00:51:30;22.70;99.90
21031;DHT22;61072;47.808;7.636;2023-07-20T00:53:57;22.70;99.90
21031;DHT22;61072;47.808;7.636;2023-07-20T00:56:24;22.70;99.90
21031;DHT22;61072;47.808;7.636;2023-07-20T00:58:52;22.70;99.90
21031;DHT22;61072;47.808;7.636;2023-07-20T01:01:19;22.70;99.90
21031;DHT22;61072;47.808;7.636;2023-07-20T01:03:46;22.70;99.90
21031;DHT22;61072;47.808;7.636;2023-07-20T01:06:31;22.70;99.90
21031;DHT22;61072;47.808;7.636;2023-07-20T01:09:09;22.70;99.90
21031;DHT22;61072;47.808;7.636;2023-07-20T01:14:18;22.70;99.90
21031;DHT22;61072;47.808;7.636;2023-07-20T01:16:46;22.70;99.90
21031;DHT22;61072;47.808;7.636;2023-07-20T01:19:14;22.70;99.90
21031;DHT22;61072;47.808;7.636;2023-07-20T01:22:19;22.60;99.90
21031;DHT22;61072;47.808;7.636;2023-07-20T01:25:08;22.60;99.90
21031;DHT22;61072;47.808;7.636;2023-07-20T01:30:25;22.60;99.90
21031;DHT22;61072;47.808;7.636;2023-07-20T01:32:58;22.60;99.90
21031;DHT22;61072;47.808;7.636;2023-07-20T01:35:29;22.60;99.90
21031;DHT22;61072;47.808;7.636;2023-07-20T01:37:56;22.60;99.90
21031;DHT22;61072;47.808;7.636;2023-07-20T01:40:25;22.50;99.90
21031;DHT22;61072;47.808;7.636;2023-07-20T01:42:53;22.50;99.90
21031;DHT22;61072;47.808;7.636;2023-07-20T01:45:20;22.50;99.90
21031;DHT22;61072;47.808;7.636;2023-07-20T01:47:47;22.50;99.90
21031;DHT22;61072;47.808;7.636;2023-07-20T01:50:13;22.50;99.90
21031;DHT22;61072;47.808;7.636;2023-07-20T01:52:40;22.50;99.90
21031;DHT22;61072;47.808;7.636;2023-07-20T01:55:07;22.40;99.90
21031;DHT22;61072;47.808;7.636;2023-07-20T01:57:35;22.40;99.90
21031;DHT22;61072;47.808;7.636;2023-07-20T02:00:02;22.40;99.90
21031;DHT22;61072;47.808;7.636;2023-07-20T02:02:29;22.40;99.90
21031;DHT22;61072;47.808;7.636;2023-07-20T02:04:56;22.40;99.90
21031;DHT22;61072;47.808;7.636;2023-07-20T02:07:23;22.40;99.90
21031;DHT22;61072;47.808;7.636;2023-07-20T02:09:49;22.30;99.90
21031;DHT22;61072;47.808;7.636;2023-07-20T02:12:16;22.30;99.90
21031;DHT22;61072;47.808;7.636;2023-07-20T02:14:43;22.30;99.90
21031;DHT22;61072;47.808;7.636;2023-07-20T02:17:10;22.20;99.90
21031;DHT22;61072;47.808;7.636;2023-07-20T02:19:38;22.20;99.90
21031;DHT22;61072;47.808;7.636;2023-07-20T02:22:05;22.20;99.90
21031;DHT22;61072;47.808;7.636;2023-07-20T02:24:33;22.10;99.90
21031;DHT22;61072;47.808;7.636;2023-07-20T02:27:00;22.10;99.90
21031;DHT22;61072;47.808;7.636;2023-07-20T02:29:27;22.00;99.90
21031;DHT22;61072;47.808;7.636;2023-07-20T02:31:54;22.00;99.90
21031;DHT22;61072;47.808;7.636;2023-07-20T02:34:21;22.00;99.90
21031;DHT22;61072;47.808;7.636;2023-07-20T02:36:47;21.90;99.90
21031;DHT22;61072;47.808;7.636;2023-07-20T02:39:14;21.90;99.90
21031;DHT22;61072;47.808;7.636;2023-07-20T02:41:41;21.80;99.90
21031;DHT22;61072;47.808;7.636;2023-07-20T02:44:08;21.80;99.90
21031;DHT22;61072;47.808;7.636;2023-07-20T02:46:35;21.80;99.90
21031;DHT22;61072;47.808;7.636;2023-07-20T02:49:02;21.80;99.90
21031;DHT22;61072;47.808;7.636;2023-07-20T02:51:28;21.80;99.90
21031;DHT22;61072;47.808;7.636;2023-07-20T02:53:55;21.70;99.90
21031;DHT22;61072;47.808;7.636;2023-07-20T02:56:22;21.70;99.90
21031;DHT22;61072;47.808;7.636;2023-07-20T02:58:50;21.70;99.90
21031;DHT22;61072;47.808;7.636;2023-07-20T03:01:16;21.70;99.90
21031;DHT22;61072;47.808;7.636;2023-07-20T03:03:43;21.60;99.90
21031;DHT22;61072;47.808;7.636;2023-07-20T03:06:14;21.60;99.90
21031;DHT22;61072;47.808;7.636;2023-07-20T03:08:44;21.70;99.90
21031;DHT22;61072;47.808;7.636;2023-07-20T03:11:14;21.60;99.90
21031;DHT22;61072;47.808;7.636;2023-07-20T03:13:42;21.60;99.90
21031;DHT22;61072;47.808;7.636;2023-07-20T03:16:10;21.50;99.90
21031;DHT22;61072;47.808;7.636;2023-07-20T03:18:41;21.50;99.90
21031;DHT22;61072;47.808;7.636;2023-07-20T03:21:09;21.50;99.90
21031;DHT22;61072;47.808;7.636;2023-07-20T03:23:41;21.50;99.90
21031;DHT22;61072;47.808;7.636;2023-07-20T03:26:08;21.50;99.90
21031;DHT22;61072;47.808;7.636;2023-07-20T03:28:36;21.50;99.90
21031;DHT22;61072;47.808;7.636;2023-07-20T03:31:03;21.40;99.90
21031;DHT22;61072;47.808;7.636;2023-07-20T03:33:30;21.40;99.90
21031;DHT22;61072;47.808;7.636;2023-07-20T03:35:58;21.40;99.90
21031;DHT22;61072;47.808;7.636;2023-07-20T03:38:25;21.40;99.90
21031;DHT22;61072;47.808;7.636;2023-07-20T03:40:56;21.40;99.90
21031;DHT22;61072;47.808;7.636;2023-07-20T03:43:24;21.30;99.90
21031;DHT22;61072;47.808;7.636;2023-07-20T03:45:52;21.40;99.90
21031;DHT22;61072;47.808;7.636;2023-07-20T03:48:20;21.30;99.90
21031;DHT22;61072;47.808;7.636;2023-07-20T03:50:49;21.30;99.90
21031;DHT22;61072;47.808;7.636;2023-07-20T03:53:17;21.30;99.90
21031;DHT22;61072;47.808;7.636;2023-07-20T03:55:47;21.30;99.90
21031;DHT22;61072;47.808;7.636;2023-07-20T03:58:15;21.30;99.90
21031;DHT22;61072;47.808;7.636;2023-07-20T04:00:49;21.30;99.90
21031;DHT22;61072;47.808;7.636;2023-07-20T04:03:18;21.20;99.90
21031;DHT22;61072;47.808;7.636;2023-07-20T04:05:45;21.20;99.90
21031;DHT22;61072;47.808;7.636;2023-07-20T04:08:12;21.20;99.90
21031;DHT22;61072;47.808;7.636;2023-07-20T04:10:39;21.20;99.90
21031;DHT22;61072;47.808;7.636;2023-07-20T04:13:06;21.20;99.90
21031;DHT22;61072;47.808;7.636;2023-07-20T04:15:33;21.20;99.90
21031;DHT22;61072;47.808;7.636;2023-07-20T04:18:00;21.20;99.90
21031;DHT22;61072;47.808;7.636;2023-07-20T04:20:27;21.20;99.90
21031;DHT22;61072;47.808;7.636;2023-07-20T04:22:54;21.10;99.90
21031;DHT22;61072;47.808;7.636;2023-07-20T04:25:21;21.10;99.90
21031;DHT22;61072;47.808;7.636;2023-07-20T04:27:48;21.10;99.90
21031;DHT22;61072;47.808;7.636;2023-07-20T04:30:17;21.10;99.90
21031;DHT22;61072;47.808;7.636;2023-07-20T04:32:46;21.00;99.90
21031;DHT22;61072;47.808;7.636;2023-07-20T04:35:50;21.00;99.90
21031;DHT22;61072;47.808;7.636;2023-07-20T04:38:17;21.00;99.90
21031;DHT22;61072;47.808;7.636;2023-07-20T04:40:48;21.00;99.90
21031;DHT22;61072;47.808;7.636;2023-07-20T04:43:17;21.00;99.90
21031;DHT22;61072;47.808;7.636;2023-07-20T04:45:44;21.00;99.90
21031;DHT22;61072;47.808;7.636;2023-07-20T04:48:14;20.90;99.90
21031;DHT22;61072;47.808;7.636;2023-07-20T04:50:42;20.90;99.90
21031;DHT22;61072;47.808;7.636;2023-07-20T04:53:09;20.90;99.90
21031;DHT22;61072;47.808;7.636;2023-07-20T04:55:39;21.00;99.90
21031;DHT22;61072;47.808;7.636;2023-07-20T04:58:07;21.00;99.90
21031;DHT22;61072;47.808;7.636;2023-07-20T05:00:34;21.00;99.90
21031;DHT22;61072;47.808;7.636;2023-07-20T05:03:01;21.10;99.90
21031;DHT22;61072;47.808;7.636;2023-07-20T05:05:28;21.10;99.90
21031;DHT22;61072;47.808;7.636;2023-07-20T05:07:55;21.10;99.90
21031;DHT22;61072;47.808;7.636;2023-07-20T05:10:21;21.10;99.90
21031;DHT22;61072;47.808;7.636;2023-07-20T05:12:48;21.10;99.90
21031;DHT22;61072;47.808;7.636;2023-07-20T05:15:15;21.20;99.90
21031;DHT22;61072;47.808;7.636;2023-07-20T05:17:42;21.30;99.90
21031;DHT22;61072;47.808;7.636;2023-07-20T05:20:09;21.30;99.90
21031;DHT22;61072;47.808;7.636;2023-07-20T05:22:39;21.40;99.90
21031;DHT22;61072;47.808;7.636;2023-07-20T05:25:07;21.50;99.90
21031;DHT22;61072;47.808;7.636;2023-07-20T05:27:38;21.60;99.90
21031;DHT22;61072;47.808;7.636;2023-07-20T05:30:06;21.70;99.90
21031;DHT22;61072;47.808;7.636;2023-07-20T05:32:33;21.80;99.90
21031;DHT22;61072;47.808;7.636;2023-07-20T05:35:00;21.80;99.90
21031;DHT22;61072;47.808;7.636;2023-07-20T05:37:27;22.00;99.90
21031;DHT22;61072;47.808;7.636;2023-07-20T05:39:54;22.10;99.90
21031;DHT22;61072;47.808;7.636;2023-07-20T05:42:21;22.10;99.90
21031;DHT22;61072;47.808;7.636;2023-07-20T05:44:47;22.10;99.90
21031;DHT22;61072;47.808;7.636;2023-07-20T05:47:16;22.20;99.90
21031;DHT22;61072;47.808;7.636;2023-07-20T05:49:43;22.30;99.90
21031;DHT22;61072;47.808;7.636;2023-07-20T05:52:09;22.30;99.90
21031;DHT22;61072;47.808;7.636;2023-07-20T05:54:36;22.30;99.90
21031;DHT22;61072;47.808;7.636;2023-07-20T05:57:04;22.30;99.90
21031;DHT22;61072;47.808;7.636;2023-07-20T05:59:31;22.30;99.90
21031;DHT22;61072;47.808;7.636;2023-07-20T06:01:58;22.30;99.90
21031;DHT22;61072;47.808;7.636;2023-07-20T06:04:25;22.30;99.90
21031;DHT22;61072;47.808;7.636;2023-07-20T06:06:51;22.30;99.90
21031;DHT22;61072;47.808;7.636;2023-07-20T06:09:18;22.30;99.90
21031;DHT22;61072;47.808;7.636;2023-07-20T06:11:45;22.30;99.90
21031;DHT22;61072;47.808;7.636;2023-07-20T06:14:12;22.30;99.90
21031;DHT22;61072;47.808;7.636;2023-07-20T06:16:39;22.30;99.90
21031;DHT22;61072;47.808;7.636;2023-07-20T06:19:06;22.30;99.90
21031;DHT22;61072;47.808;7.636;2023-07-20T06:21:33;22.20;99.90
21031;DHT22;61072;47.808;7.636;2023-07-20T06:23:59;22.20;99.90
21031;DHT22;61072;47.808;7.636;2023-07-20T06:26:26;22.10;99.90
21031;DHT22;61072;47.808;7.636;2023-07-20T06:28:53;22.10;99.90
21031;DHT22;61072;47.808;7.636;2023-07-20T06:31:20;22.10;99.90
21031;DHT22;61072;47.808;7.636;2023-07-20T06:33:46;22.10;99.90
21031;DHT22;61072;47.808;7.636;2023-07-20T06:36:17;22.10;99.90
21031;DHT22;61072;47.808;7.636;2023-07-20T06:38:44;22.10;99.90
21031;DHT22;61072;47.808;7.636;2023-07-20T06:41:31;22.00;99.90
21031;DHT22;61072;47.808;7.636;2023-07-20T06:44:00;21.90;99.90
21031;DHT22;61072;47.808;7.636;2023-07-20T06:46:27;21.90;99.90
21031;DHT22;61072;47.808;7.636;2023-07-20T06:48:54;21.80;99.90
21031;DHT22;61072;47.808;7.636;2023-07-20T06:51:24;21.80;99.90
21031;DHT22;61072;47.808;7.636;2023-07-20T06:53:52;21.80;99.90
21031;DHT22;61072;47.808;7.636;2023-07-20T06:56:18;21.80;99.90
21031;DHT22;61072;47.808;7.636;2023-07-20T06:58:49;21.80;99.90
21031;DHT22;61072;47.808;7.636;2023-07-20T07:01:16;21.90;99.90
21031;DHT22;61072;47.808;7.636;2023-07-20T07:03:43;21.80;99.90
21031;DHT22;61072;47.808;7.636;2023-07-20T07:06:10;21.80;99.90
21031;DHT22;61072;47.808;7.636;2023-07-20T07:08:37;21.70;99.90
21031;DHT22;61072;47.808;7.636;2023-07-20T07:11:04;21.70;99.90
21031;DHT22;61072;47.808;7.636;2023-07-20T07:13:32;21.70;99.90
21031;DHT22;61072;47.808;7.636;2023-07-20T07:15:58;21.70;99.90
21031;DHT22;61072;47.808;7.636;2023-07-20T07:18:25;21.70;99.90
21031;DHT22;61072;47.808;7.636;2023-07-20T07:20:53;21.80;99.90
21031;DHT22;61072;47.808;7.636;2023-07-20T07:23:20;21.80;99.90
21031;DHT22;61072;47.808;7.636;2023-07-20T07:25:48;21.90;99.90
21031;DHT22;61072;47.808;7.636;2023-07-20T07:28:15;22.00;99.90
21031;DHT22;61072;47.808;7.636;2023-07-20T07:30:42;22.00;99.90
21031;DHT22;61072;47.808;7.636;2023-07-20T07:33:08;22.10;99.90
21031;DHT22;61072;47.808;7.636;2023-07-20T07:35:36;22.10;99.90
21031;DHT22;61072;47.808;7.636;2023-07-20T07:38:03;22.10;99.90
21031;DHT22;61072;47.808;7.636;2023-07-20T07:40:50;22.20;99.90
21031;DHT22;61072;47.808;7.636;2023-07-20T07:43:17;22.30;99.90
21031;DHT22;61072;47.808;7.636;2023-07-20T07:45:44;22.40;99.90
21031;DHT22;61072;47.808;7.636;2023-07-20T07:48:10;22.50;99.90
21031;DHT22;61072;47.808;7.636;2023-07-20T07:50:39;22.60;99.90
21031;DHT22;61072;47.808;7.636;2023-07-20T07:53:09;22.70;99.90
21031;DHT22;61072;47.808;7.636;2023-07-20T07:55:36;22.70;99.90
21031;DHT22;61072;47.808;7.636;2023-07-20T07:58:03;22.80;99.90
21031;DHT22;61072;47.808;7.636;2023-07-20T08:00:30;22.80;99.90
21031;DHT22;61072;47.808;7.636;2023-07-20T08:02:56;22.90;99.90
21031;DHT22;61072;47.808;7.636;2023-07-20T08:05:24;22.90;99.90
21031;DHT22;61072;47.808;7.636;2023-07-20T08:07:51;23.00;99.90
21031;DHT22;61072;47.808;7.636;2023-07-20T08:10:18;23.00;99.90
21031;DHT22;61072;47.808;7.636;2023-07-20T08:12:45;23.10;99.90
21031;DHT22;61072;47.808;7.636;2023-07-20T08:15:12;23.10;99.90
21031;DHT22;61072;47.808;7.636;2023-07-20T08:17:42;23.10;99.90
21031;DHT22;61072;47.808;7.636;2023-07-20T08:20:12;23.20;99.90
21031;DHT22;61072;47.808;7.636;2023-07-20T08:22:39;23.30;99.90
21031;DHT22;61072;47.808;7.636;2023-07-20T08:25:06;23.30;99.90
21031;DHT22;61072;47.808;7.636;2023-07-20T08:27:33;23.30;99.90
21031;DHT22;61072;47.808;7.636;2023-07-20T08:30:00;23.20;99.90
21031;DHT22;61072;47.808;7.636;2023-07-20T08:32:27;23.20;99.90
21031;DHT22;61072;47.808;7.636;2023-07-20T08:34:54;23.10;99.90
21031;DHT22;61072;47.808;7.636;2023-07-20T08:37:21;23.10;99.90
21031;DHT22;61072;47.808;7.636;2023-07-20T08:39:47;23.10;99.90
21031;DHT22;61072;47.808;7.636;2023-07-20T08:42:14;23.00;99.90
21031;DHT22;61072;47.808;7.636;2023-07-20T08:44:42;23.00;99.90
21031;DHT22;61072;47.808;7.636;2023-07-20T08:47:10;23.10;99.90
21031;DHT22;61072;47.808;7.636;2023-07-20T08:49:39;23.10;99.90
21031;DHT22;61072;47.808;7.636;2023-07-20T08:52:06;23.00;99.90
21031;DHT22;61072;47.808;7.636;2023-07-20T08:54:34;23.00;99.90
21031;DHT22;61072;47.808;7.636;2023-07-20T08:57:04;23.00;99.90
21031;DHT22;61072;47.808;7.636;2023-07-20T08:59:31;23.00;99.90
21031;DHT22;61072;47.808;7.636;2023-07-20T09:01:59;23.00;99.90
21031;DHT22;61072;47.808;7.636;2023-07-20T09:04:26;23.00;99.90
21031;DHT22;61072;47.808;7.636;2023-07-20T09:06:53;23.00;99.90
21031;DHT22;61072;47.808;7.636;2023-07-20T09:09:20;23.00;99.90
21031;DHT22;61072;47.808;7.636;2023-07-20T09:11:50;23.00;99.90
21031;DHT22;61072;47.808;7.636;2023-07-20T09:14:17;23.00;99.90
21031;DHT22;61072;47.808;7.636;2023-07-20T09:16:48;23.10;99.90
21031;DHT22;61072;47.808;7.636;2023-07-20T09:19:16;23.10;99.90
21031;DHT22;61072;47.808;7.636;2023-07-20T09:21:48;23.00;99.90
21031;DHT22;61072;47.808;7.636;2023-07-20T09:24:18;23.00;99.90
21031;DHT22;61072;47.808;7.636;2023-07-20T09:26:46;22.90;99.90
21031;DHT22;61072;47.808;7.636;2023-07-20T09:29:20;23.00;99.90
21031;DHT22;61072;47.808;7.636;2023-07-20T09:32:03;23.10;99.90
21031;DHT22;61072;47.808;7.636;2023-07-20T09:34:31;23.20;99.90
21031;DHT22;61072;47.808;7.636;2023-07-20T09:37:01;23.30;99.90
21031;DHT22;61072;47.808;7.636;2023-07-20T09:39:29;23.40;99.90
21031;DHT22;61072;47.808;7.636;2023-07-20T09:42:00;23.50;99.90
21031;DHT22;61072;47.808;7.636;2023-07-20T09:44:31;23.60;99.90
21031;DHT22;61072;47.808;7.636;2023-07-20T09:47:03;23.70;99.90
21031;DHT22;61072;47.808;7.636;2023-07-20T09:49:31;23.90;99.90
21031;DHT22;61072;47.808;7.636;2023-07-20T09:52:18;24.00;99.90
21031;DHT22;61072;47.808;7.636;2023-07-20T09:54:49;24.10;99.90
21031;DHT22;61072;47.808;7.636;2023-07-20T09:57:16;24.20;99.90
21031;DHT22;61072;47.808;7.636;2023-07-20T09:59:43;24.30;99.90
21031;DHT22;61072;47.808;7.636;2023-07-20T10:02:27;24.40;99.90
21031;DHT22;61072;47.808;7.636;2023-07-20T10:05:02;24.30;99.90
21031;DHT22;61072;47.808;7.636;2023-07-20T10:07:30;24.30;99.90
21031;DHT22;61072;47.808;7.636;2023-07-20T10:09:59;24.30;99.90
21031;DHT22;61072;47.808;7.636;2023-07-20T10:12:28;24.30;99.90
21031;DHT22;61072;47.808;7.636;2023-07-20T10:15:11;24.20;99.90
21031;DHT22;61072;47.808;7.636;2023-07-20T10:17:49;24.10;99.90
21031;DHT22;61072;47.808;7.636;2023-07-20T10:20:19;24.10;99.90
21031;DHT22;61072;47.808;7.636;2023-07-20T10:22:48;24.10;99.90
21031;DHT22;61072;47.808;7.636;2023-07-20T10:25:17;24.10;99.90
21031;DHT22;61072;47.808;7.636;2023-07-20T10:27:46;24.10;99.90
21031;DHT22;61072;47.808;7.636;2023-07-20T10:30:13;24.10;99.90
21031;DHT22;61072;47.808;7.636;2023-07-20T10:32:41;24.00;99.90
21031;DHT22;61072;47.808;7.636;2023-07-20T10:35:16;24.00;99.90
21031;DHT22;61072;47.808;7.636;2023-07-20T10:37:54;24.00;99.90
21031;DHT22;61072;47.808;7.636;2023-07-20T10:40:26;24.00;99.90
21031;DHT22;61072;47.808;7.636;2023-07-20T10:42:58;24.00;99.90
21031;DHT22;61072;47.808;7.636;2023-07-20T10:45:47;24.00;99.90
21031;DHT22;61072;47.808;7.636;2023-07-20T10:48:18;24.10;99.90
21031;DHT22;61072;47.808;7.636;2023-07-20T10:50:48;24.20;99.90
21031;DHT22;61072;47.808;7.636;2023-07-20T10:53:32;24.30;99.90
21031;DHT22;61072;47.808;7.636;2023-07-20T10:56:15;24.30;99.90
21031;DHT22;61072;47.808;7.636;2023-07-20T10:58:42;24.40;99.90
21031;DHT22;61072;47.808;7.636;2023-07-20T11:01:13;24.30;99.90
21031;DHT22;61072;47.808;7.636;2023-07-20T11:03:43;24.30;99.90
21031;DHT22;61072;47.808;7.636;2023-07-20T11:08:56;24.30;99.90
21031;DHT22;61072;47.808;7.636;2023-07-20T11:11:30;24.30;99.90
21031;DHT22;61072;47.808;7.636;2023-07-20T11:14:02;24.30;99.90
21031;DHT22;61072;47.808;7.636;2023-07-20T11:16:43;24.40;99.90
21031;DHT22;61072;47.808;7.636;2023-07-20T11:22:04;24.50;99.90
21031;DHT22;61072;47.808;7.636;2023-07-20T11:24:34;24.60;99.90
21031;DHT22;61072;47.808;7.636;2023-07-20T11:27:01;24.70;99.90
21031;DHT22;61072;47.808;7.636;2023-07-20T11:29:28;24.80;99.90
21031;DHT22;61072;47.808;7.636;2023-07-20T11:32:01;24.80;99.90
21031;DHT22;61072;47.808;7.636;2023-07-20T11:34:33;24.80;99.90
21031;DHT22;61072;47.808;7.636;2023-07-20T11:37:00;24.80;99.90
21031;DHT22;61072;47.808;7.636;2023-07-20T11:39:30;24.80;99.90
21031;DHT22;61072;47.808;7.636;2023-07-20T11:41:57;24.90;99.90
21031;DHT22;61072;47.808;7.636;2023-07-20T11:44:28;25.00;99.90
21031;DHT22;61072;47.808;7.636;2023-07-20T11:49:41;25.20;99.90
21031;DHT22;61072;47.808;7.636;2023-07-20T11:52:14;25.20;99.90
21031;DHT22;61072;47.808;7.636;2023-07-20T11:54:43;25.30;99.90
21031;DHT22;61072;47.808;7.636;2023-07-20T11:57:18;25.30;99.90
21031;DHT22;61072;47.808;7.636;2023-07-20T12:02:27;25.50;99.90
21031;DHT22;61072;47.808;7.636;2023-07-20T12:04:55;25.50;99.90
21031;DHT22;61072;47.808;7.636;2023-07-20T12:07:22;25.50;99.90
21031;DHT22;61072;47.808;7.636;2023-07-20T12:10:09;25.50;99.90
21031;DHT22;61072;47.808;7.636;2023-07-20T12:12:41;25.70;99.90
21031;DHT22;61072;47.808;7.636;2023-07-20T12:15:19;25.70;99.90
21031;DHT22;61072;47.808;7.636;2023-07-20T12:17:49;25.70;99.90
21031;DHT22;61072;47.808;7.636;2023-07-20T12:23:00;25.70;99.90
21031;DHT22;61072;47.808;7.636;2023-07-20T12:25:44;25.70;99.90
21031;DHT22;61072;47.808;7.636;2023-07-20T12:28:13;25.60;99.90
21031;DHT22;61072;47.808;7.636;2023-07-20T12:30:41;25.60;99.90
21031;DHT22;61072;47.808;7.636;2023-07-20T12:33:08;25.50;99.90
21031;DHT22;61072;47.808;7.636;2023-07-20T12:35:36;25.50;99.90
21031;DHT22;61072;47.808;7.636;2023-07-20T12:38:03;25.40;99.90
21031;DHT22;61072;47.808;7.636;2023-07-20T12:40:30;25.40;99.90
21031;DHT22;61072;47.808;7.636;2023-07-20T12:42:57;25.40;99.90
21031;DHT22;61072;47.808;7.636;2023-07-20T12:45:24;25.40;99.90
21031;DHT22;61072;47.808;7.636;2023-07-20T12:47:51;25.40;99.90
21031;DHT22;61072;47.808;7.636;2023-07-20T12:50:18;25.40;99.90
21031;DHT22;61072;47.808;7.636;2023-07-20T12:52:44;25.40;99.90
21031;DHT22;61072;47.808;7.636;2023-07-20T12:55:11;25.40;99.90
21031;DHT22;61072;47.808;7.636;2023-07-20T12:57:38;25.50;99.90
21031;DHT22;61072;47.808;7.636;2023-07-20T13:00:06;25.50;99.90
21031;DHT22;61072;47.808;7.636;2023-07-20T13:02:37;25.50;99.90
21031;DHT22;61072;47.808;7.636;2023-07-20T13:05:05;25.60;99.90
21031;DHT22;61072;47.808;7.636;2023-07-20T13:07:37;25.60;99.90
21031;DHT22;61072;47.808;7.636;2023-07-20T13:10:09;25.70;99.90
21031;DHT22;61072;47.808;7.636;2023-07-20T13:12:37;25.70;99.90
21031;DHT22;61072;47.808;7.636;2023-07-20T13:15:05;25.70;99.90
21031;DHT22;61072;47.808;7.636;2023-07-20T13:17:33;25.70;99.90
21031;DHT22;61072;47.808;7.636;2023-07-20T13:20:00;25.70;99.90
21031;DHT22;61072;47.808;7.636;2023-07-20T13:22:27;25.70;99.90
21031;DHT22;61072;47.808;7.636;2023-07-20T13:24:54;25.70;99.90
21031;DHT22;61072;47.808;7.636;2023-07-20T13:27:21;25.60;99.90
21031;DHT22;61072;47.808;7.636;2023-07-20T13:29:47;25.60;99.90
21031;DHT22;61072;47.808;7.636;2023-07-20T13:32:15;25.70;99.90
21031;DHT22;61072;47.808;7.636;2023-07-20T13:34:42;25.80;99.90
21031;DHT22;61072;47.808;7.636;2023-07-20T13:37:08;25.90;99.90
21031;DHT22;61072;47.808;7.636;2023-07-20T13:39:38;26.00;99.90
21031;DHT22;61072;47.808;7.636;2023-07-20T13:42:06;26.10;99.90
21031;DHT22;61072;47.808;7.636;2023-07-20T13:44:32;26.10;99.90
21031;DHT22;61072;47.808;7.636;2023-07-20T13:47:00;26.20;99.90
21031;DHT22;61072;47.808;7.636;2023-07-20T13:49:30;26.20;99.90
21031;DHT22;61072;47.808;7.636;2023-07-20T13:52:02;26.20;99.90
21031;DHT22;61072;47.808;7.636;2023-07-20T13:54:32;26.20;99.90
21031;DHT22;61072;47.808;7.636;2023-07-20T13:56:58;26.20;99.90
21031;DHT22;61072;47.808;7.636;2023-07-20T13:59:25;26.10;99.90
21031;DHT22;61072;47.808;7.636;2023-07-20T14:01:52;26.00;99.90
21031;DHT22;61072;47.808;7.636;2023-07-20T14:04:39;26.00;99.90
21031;DHT22;61072;47.808;7.636;2023-07-20T14:07:06;25.90;99.90
21031;DHT22;61072;47.808;7.636;2023-07-20T14:09:33;25.90;99.90
21031;DHT22;61072;47.808;7.636;2023-07-20T14:12:00;25.90;99.90
21031;DHT22;61072;47.808;7.636;2023-07-20T14:14:30;25.90;99.90
21031;DHT22;61072;47.808;7.636;2023-07-20T14:16:56;25.90;99.90
21031;DHT22;61072;47.808;7.636;2023-07-20T14:19:23;25.90;99.90
21031;DHT22;61072;47.808;7.636;2023-07-20T14:21:50;25.90;99.90
21031;DHT22;61072;47.808;7.636;2023-07-20T14:24:17;25.90;99.90
21031;DHT22;61072;47.808;7.636;2023-07-20T14:26:45;25.90;99.90
21031;DHT22;61072;47.808;7.636;2023-07-20T14:29:14;25.90;99.90
21031;DHT22;61072;47.808;7.636;2023-07-20T14:31:40;25.90;99.90
21031;DHT22;61072;47.808;7.636;2023-07-20T14:34:08;25.90;99.90
21031;DHT22;61072;47.808;7.636;2023-07-20T14:36:35;26.00;99.90
21031;DHT22;61072;47.808;7.636;2023-07-20T14:39:02;26.00;99.90
21031;DHT22;61072;47.808;7.636;2023-07-20T14:41:28;26.10;99.90
21031;DHT22;61072;47.808;7.636;2023-07-20T14:43:55;26.10;99.90
21031;DHT22;61072;47.808;7.636;2023-07-20T14:46:23;26.00;99.90
21031;DHT22;61072;47.808;7.636;2023-07-20T14:48:50;26.00;99.90
21031;DHT22;61072;47.808;7.636;2023-07-20T14:51:18;26.00;99.90
21031;DHT22;61072;47.808;7.636;2023-07-20T14:53:46;26.00;99.90
21031;DHT22;61072;47.808;7.636;2023-07-20T14:56:12;26.00;99.90
21031;DHT22;61072;47.808;7.636;2023-07-20T14:58:39;25.90;99.90
21031;DHT22;61072;47.808;7.636;2023-07-20T15:01:06;25.90;99.90
21031;DHT22;61072;47.808;7.636;2023-07-20T15:03:33;25.90;99.90
21031;DHT22;61072;47.808;7.636;2023-07-20T15:06:01;25.90;99.90
21031;DHT22;61072;47.808;7.636;2023-07-20T15:08:28;25.90;99.90
21031;DHT22;61072;47.808;7.636;2023-07-20T15:10:54;25.90;99.90
21031;DHT22;61072;47.808;7.636;2023-07-20T15:13:21;25.80;99.90
21031;DHT22;61072;47.808;7.636;2023-07-20T15:15:49;25.80;99.90
21031;DHT22;61072;47.808;7.636;2023-07-20T15:18:16;25.80;99.90
21031;DHT22;61072;47.808;7.636;2023-07-20T15:20:42;25.80;99.90
21031;DHT22;61072;47.808;7.636;2023-07-20T15:23:10;25.80;99.90
21031;DHT22;61072;47.808;7.636;2023-07-20T15:25:37;25.80;99.90
21031;DHT22;61072;47.808;7.636;2023-07-20T15:28:04;25.80;99.90
21031;DHT22;61072;47.808;7.636;2023-07-20T15:30:30;25.80;99.90
21031;DHT22;61072;47.808;7.636;2023-07-20T15:33:00;25.80;99.90
21031;DHT22;61072;47.808;7.636;2023-07-20T15:35:30;25.80;99.90
21031;DHT22;61072;47.808;7.636;2023-07-20T15:37:56;25.80;99.90
21031;DHT22;61072;47.808;7.636;2023-07-20T15:40:26;25.80;99.90
21031;DHT22;61072;47.808;7.636;2023-07-20T15:42:52;25.90;99.90
21031;DHT22;61072;47.808;7.636;2023-07-20T15:45:21;25.90;99.90
21031;DHT22;61072;47.808;7.636;2023-07-20T15:47:48;25.90;99.90
21031;DHT22;61072;47.808;7.636;2023-07-20T15:50:15;25.90;99.90
21031;DHT22;61072;47.808;7.636;2023-07-20T15:52:42;25.80;99.90
21031;DHT22;61072;47.808;7.636;2023-07-20T15:55:10;25.90;99.90
21031;DHT22;61072;47.808;7.636;2023-07-20T15:57:37;25.90;99.90